Time;durP1;ratioP1;P1;durP2;ratioP2;P2;SDS_P1;SDS_P2;PMS_P1;PMS_P2;Temp;Humidity;BMP_temperature;BMP_pressure;BME280_temperature;BME280_humidity;BME280_pressure;Samples;Min_cycle;Max_cycle;Signal;HPM_P1;HPM_P2
2024/01/03 00:01:30;;;;;;;4.17;1.63;;;5.10;99.90;;;;;;4193521;28;20438;-59
2024/01/03 00:03:31;;;;;;;4.27;1.87;;;5.10;99.90;;;;;;4192530;28;20053;-60
2024/01/03 00:05:37;;;;;;;6.37;2.40;;;5.20;99.90;;;;;;4193174;28;20040;-60
2024/01/03 00:07:39;;;;;;;2.90;1.90;;;5.20;99.90;;;;;;4193991;28;20082;-60
2024/01/03 00:09:40;;;;;;;2.73;1.40;;;5.20;99.90;;;;;;4192394;28;20024;-60
2024/01/03 00:11:42;;;;;;;3.30;1.40;;;5.20;99.90;;;;;;4193063;28;20024;-61
2024/01/03 00:13:55;;;;;;;2.60;1.70;;;5.20;99.90;;;;;;4192909;28;20101;-61
2024/01/03 00:15:59;;;;;;;4.07;1.80;;;5.20;99.90;;;;;;4192578;28;20032;-62
2024/01/03 00:18:04;;;;;;;4.90;1.60;;;5.20;99.90;;;;;;4191749;28;20093;-61
2024/01/03 00:20:07;;;;;;;4.17;1.57;;;5.20;99.90;;;;;;4192208;28;20750;-61
2024/01/03 00:22:11;;;;;;;3.57;1.53;;;5.30;99.90;;;;;;4191880;28;20113;-61
2024/01/03 00:24:16;;;;;;;4.83;1.83;;;5.30;99.90;;;;;;4192683;28;20489;-60
2024/01/03 00:26:18;;;;;;;4.37;1.77;;;5.30;99.90;;;;;;4192754;28;20044;-61
2024/01/03 00:28:19;;;;;;;2.80;1.13;;;5.30;99.90;;;;;;4192950;28;20462;-60
2024/01/03 00:30:20;;;;;;;3.53;0.87;;;5.30;99.90;;;;;;4193065;28;20032;-61
2024/01/03 00:32:22;;;;;;;3.87;1.63;;;5.40;99.90;;;;;;4193518;28;20476;-61
2024/01/03 00:34:23;;;;;;;4.10;1.90;;;5.50;99.90;;;;;;4191807;28;20089;-61
2024/01/03 00:36:25;;;;;;;2.80;1.10;;;5.50;99.90;;;;;;4192391;28;20362;-61
2024/01/03 00:38:27;;;;;;;1.40;0.90;;;5.50;99.90;;;;;;4192112;28;20037;-61
2024/01/03 00:40:31;;;;;;;3.07;1.60;;;5.60;99.90;;;;;;4192423;28;20723;-61
2024/01/03 00:42:32;;;;;;;3.13;1.50;;;5.60;99.90;;;;;;4192467;28;20918;-60
2024/01/03 00:44:33;;;;;;;3.93;1.70;;;5.60;99.90;;;;;;4193553;28;20411;-60
2024/01/03 00:46:34;;;;;;;2.87;1.53;;;5.60;99.90;;;;;;4193051;28;20431;-61
2024/01/03 00:48:35;;;;;;;3.10;1.70;;;5.60;99.90;;;;;;4191088;28;20070;-61
2024/01/03 00:50:37;;;;;;;1.47;0.87;;;5.60;99.90;;;;;;4192355;28;20090;-60
2024/01/03 00:52:38;;;;;;;3.07;1.50;;;5.60;99.90;;;;;;4192381;28;20036;-61
2024/01/03 00:54:40;;;;;;;2.57;1.50;;;5.70;99.90;;;;;;4191600;28;20032;-60
2024/01/03 00:56:41;;;;;;;2.67;1.50;;;5.70;99.90;;;;;;4192713;28;20033;-60
2024/01/03 00:58:42;;;;;;;2.90;1.67;;;5.70;99.90;;;;;;4191924;28;20040;-61
2024/01/03 01:00:43;;;;;;;3.63;1.67;;;5.70;99.90;;;;;;4192844;28;20366;-61
2024/01/03 01:02:45;;;;;;;4.77;1.63;;;5.70;99.90;;;;;;4193072;28;20024;-60
2024/01/03 01:04:46;;;;;;;3.67;1.30;;;5.70;99.90;;;;;;4191460;28;20048;-60
2024/01/03 01:06:48;;;;;;;1.97;0.90;;;5.70;99.90;;;;;;4191968;28;20459;-60
2024/01/03 01:08:49;;;;;;;1.57;1.03;;;5.70;99.90;;;;;;4192547;28;20105;-61
2024/01/03 01:10:50;;;;;;;2.17;0.70;;;5.70;99.90;;;;;;4192580;28;20036;-61
2024/01/03 01:12:52;;;;;;;2.20;1.10;;;5.70;99.90;;;;;;4192390;28;20048;-60
2024/01/03 01:14:53;;;;;;;2.97;1.23;;;5.70;99.90;;;;;;4193527;28;20021;-60
2024/01/03 01:16:54;;;;;;;2.07;1.00;;;5.80;99.90;;;;;;4192424;28;20094;-61
2024/01/03 01:18:55;;;;;;;1.33;0.70;;;5.80;99.90;;;;;;4193093;28;20028;-61
2024/01/03 01:20:56;;;;;;;2.27;0.80;;;5.80;99.90;;;;;;4191092;28;20044;-61
2024/01/03 01:22:57;;;;;;;1.10;0.77;;;5.90;99.90;;;;;;4192046;28;20094;-60
2024/01/03 01:24:59;;;;;;;2.67;1.00;;;5.90;99.90;;;;;;4192570;28;20089;-61
2024/01/03 01:27:00;;;;;;;1.70;1.00;;;5.90;99.90;;;;;;4191889;28;20024;-60
2024/01/03 01:29:01;;;;;;;2.13;1.10;;;5.90;99.90;;;;;;4192912;28;20168;-60
2024/01/03 01:31:02;;;;;;;2.90;1.10;;;5.90;99.90;;;;;;4192366;28;20049;-60
2024/01/03 01:33:03;;;;;;;1.90;1.33;;;5.90;99.90;;;;;;4192398;28;20077;-60
2024/01/03 01:35:05;;;;;;;3.83;1.23;;;5.90;99.90;;;;;;4193230;28;20029;-61
2024/01/03 01:37:07;;;;;;;1.77;1.10;;;5.90;99.90;;;;;;4191987;28;20553;-60
2024/01/03 01:39:09;;;;;;;3.47;1.47;;;5.90;99.90;;;;;;4193022;28;20025;-60
2024/01/03 01:41:10;;;;;;;2.40;1.20;;;5.90;99.90;;;;;;4193077;28;20090;-61
2024/01/03 01:43:11;;;;;;;1.57;0.80;;;5.80;99.90;;;;;;4192331;28;20040;-60
2024/01/03 01:45:12;;;;;;;3.03;1.50;;;5.80;99.90;;;;;;4192958;28;20094;-61
2024/01/03 01:47:14;;;;;;;4.40;1.03;;;5.80;99.90;;;;;;4192165;28;20053;-60
2024/01/03 01:49:18;;;;;;;1.93;0.93;;;5.90;99.90;;;;;;4192875;28;20036;-60
2024/01/03 01:51:19;;;;;;;2.20;0.97;;;5.90;99.90;;;;;;4192217;28;20040;-61
2024/01/03 01:53:20;;;;;;;4.83;1.60;;;5.90;99.90;;;;;;4192312;28;20028;-60
2024/01/03 01:55:22;;;;;;;2.83;1.67;;;5.90;99.90;;;;;;4193078;28;20074;-60
2024/01/03 01:57:23;;;;;;;4.40;1.47;;;5.90;99.90;;;;;;4192004;28;20151;-62
2024/01/03 01:59:24;;;;;;;2.03;1.10;;;5.90;99.90;;;;;;4191748;28;20414;-62
2024/01/03 02:01:27;;;;;;;2.07;1.03;;;5.90;99.90;;;;;;4190741;28;20065;-61
2024/01/03 02:03:29;;;;;;;3.27;1.40;;;5.90;99.90;;;;;;4192119;28;20052;-59
2024/01/03 02:05:30;;;;;;;5.37;1.60;;;5.90;99.90;;;;;;4192922;28;20067;-61
2024/01/03 02:07:32;;;;;;;3.33;1.37;;;5.80;99.90;;;;;;4192379;28;20040;-59
2024/01/03 02:09:33;;;;;;;2.40;1.67;;;5.80;99.90;;;;;;4191703;28;20105;-60
2024/01/03 02:11:34;;;;;;;4.30;2.20;;;5.80;99.90;;;;;;4192180;28;20048;-60
2024/01/03 02:13:35;;;;;;;2.87;1.80;;;5.80;99.90;;;;;;4192440;28;20094;-60
2024/01/03 02:15:37;;;;;;;3.53;1.73;;;5.70;99.90;;;;;;4193034;28;20028;-61
2024/01/03 02:17:39;;;;;;;3.83;1.90;;;5.50;99.90;;;;;;4191957;28;20053;-61
2024/01/03 02:19:40;;;;;;;6.67;2.40;;;5.30;99.90;;;;;;4191622;28;20041;-59
2024/01/03 02:21:41;;;;;;;4.47;1.97;;;5.20;99.90;;;;;;4192676;28;20029;-60
2024/01/03 02:23:43;;;;;;;5.77;2.30;;;5.10;99.90;;;;;;4191855;28;20036;-59
2024/01/03 02:25:44;;;;;;;5.73;3.30;;;5.10;99.90;;;;;;4192835;28;20094;-60
2024/01/03 02:27:46;;;;;;;10.17;2.10;;;5.10;99.90;;;;;;4192569;28;20020;-59
2024/01/03 02:29:47;;;;;;;4.87;2.63;;;5.00;99.90;;;;;;4192044;28;20033;-61
2024/01/03 02:31:48;;;;;;;7.10;2.60;;;4.90;99.90;;;;;;4191839;28;20028;-60
2024/01/03 02:33:49;;;;;;;7.27;2.60;;;4.80;99.90;;;;;;4193633;28;20029;-61
2024/01/03 02:35:50;;;;;;;4.03;2.80;;;4.70;99.90;;;;;;4194598;28;20037;-60
2024/01/03 02:37:51;;;;;;;4.57;2.57;;;4.60;99.90;;;;;;4194867;28;20094;-60
2024/01/03 02:39:53;;;;;;;3.33;2.17;;;4.50;99.90;;;;;;4194531;28;20070;-60
2024/01/03 02:41:54;;;;;;;4.40;2.73;;;4.50;99.90;;;;;;4194653;28;20036;-61
2024/01/03 02:43:55;;;;;;;6.87;2.90;;;4.40;99.90;;;;;;4194535;28;20044;-61
2024/01/03 02:45:56;;;;;;;8.07;2.77;;;4.40;99.90;;;;;;4194914;28;20049;-60
2024/01/03 02:47:57;;;;;;;9.53;3.10;;;4.40;99.90;;;;;;4195476;28;20071;-59
2024/01/03 02:49:58;;;;;;;4.97;3.13;;;4.40;99.90;;;;;;4194345;28;20082;-61
2024/01/03 02:52:00;;;;;;;10.93;4.33;;;4.30;99.90;;;;;;4195296;28;20261;-60
2024/01/03 02:54:01;;;;;;;7.07;4.30;;;4.20;99.90;;;;;;4193938;28;20044;-60
2024/01/03 02:56:02;;;;;;;6.47;3.70;;;4.20;99.90;;;;;;4194446;28;20303;-61
2024/01/03 02:58:03;;;;;;;10.40;3.50;;;4.20;99.90;;;;;;4193851;28;20327;-60
2024/01/03 03:00:05;;;;;;;5.37;2.80;;;4.10;99.90;;;;;;4195184;28;20323;-60
2024/01/03 03:02:07;;;;;;;5.97;2.67;;;4.10;99.90;;;;;;4194918;28;20242;-59
2024/01/03 03:04:08;;;;;;;6.07;3.00;;;4.00;99.90;;;;;;4193051;28;20078;-59
2024/01/03 03:06:09;;;;;;;7.37;3.60;;;4.00;99.90;;;;;;4193881;28;20842;-59
2024/01/03 03:08:10;;;;;;;5.80;3.10;;;4.00;99.90;;;;;;4192521;28;20346;-61
2024/01/03 03:10:14;;;;;;;6.57;3.33;;;4.00;99.90;;;;;;4193364;28;20289;-61
2024/01/03 03:12:15;;;;;;;6.23;3.50;;;3.90;99.90;;;;;;4194724;28;20382;-61
2024/01/03 03:14:16;;;;;;;9.43;3.57;;;3.90;99.90;;;;;;4193680;28;20326;-60
2024/01/03 03:16:17;;;;;;;7.33;3.87;;;3.90;99.90;;;;;;4194902;28;20261;-61
2024/01/03 03:18:18;;;;;;;7.87;4.47;;;3.80;99.90;;;;;;4195110;28;20318;-61
2024/01/03 03:20:20;;;;;;;8.37;3.43;;;3.80;99.90;;;;;;4193945;28;20277;-61
2024/01/03 03:22:21;;;;;;;7.37;3.33;;;3.80;99.90;;;;;;4194956;28;20370;-61
2024/01/03 03:24:22;;;;;;;6.60;3.47;;;3.80;99.90;;;;;;4194698;28;20273;-60
2024/01/03 03:26:23;;;;;;;6.47;3.40;;;3.80;99.90;;;;;;4194023;28;20293;-59
2024/01/03 03:28:24;;;;;;;7.10;3.77;;;3.80;99.90;;;;;;4193970;28;20734;-59
2024/01/03 03:30:26;;;;;;;7.27;3.53;;;3.80;99.90;;;;;;4175898;28;20270;-61
2024/01/03 03:32:27;;;;;;;5.80;3.50;;;3.80;99.90;;;;;;4193856;28;20454;-60
2024/01/03 03:34:28;;;;;;;8.53;3.60;;;3.90;99.90;;;;;;4194791;28;20757;-61
2024/01/03 03:36:29;;;;;;;9.13;4.30;;;3.90;99.90;;;;;;4193810;28;20335;-61
2024/01/03 03:38:30;;;;;;;9.53;3.37;;;3.90;99.90;;;;;;4194007;28;20415;-61
2024/01/03 03:40:31;;;;;;;6.97;3.80;;;3.90;99.90;;;;;;4193457;28;20338;-61
2024/01/03 03:42:33;;;;;;;8.20;3.53;;;3.90;99.90;;;;;;4194442;28;20599;-60
2024/01/03 03:44:34;;;;;;;6.63;3.20;;;3.90;99.90;;;;;;4194180;28;20278;-61
2024/01/03 03:46:35;;;;;;;9.60;3.90;;;3.90;99.90;;;;;;4194223;28;20301;-60
2024/01/03 03:48:36;;;;;;;7.60;4.63;;;3.90;99.90;;;;;;4193232;28;20343;-61
2024/01/03 03:50:37;;;;;;;8.63;4.30;;;3.90;99.90;;;;;;4194269;28;20307;-61
2024/01/03 03:52:40;;;;;;;9.80;5.07;;;3.90;99.90;;;;;;4193578;28;20323;-61
2024/01/03 03:54:41;;;;;;;9.33;4.83;;;3.90;99.90;;;;;;4193982;28;20269;-61
2024/01/03 03:56:42;;;;;;;8.40;4.33;;;3.80;99.90;;;;;;4193575;28;20333;-60
2024/01/03 03:58:43;;;;;;;8.23;4.20;;;3.80;99.90;;;;;;4193802;28;20338;-61
2024/01/03 04:00:44;;;;;;;8.47;4.33;;;3.80;99.90;;;;;;4193793;28;20265;-62
2024/01/03 04:02:46;;;;;;;9.97;4.27;;;3.80;99.90;;;;;;4192458;28;20273;-59
2024/01/03 04:04:47;;;;;;;7.73;4.30;;;3.90;99.90;;;;;;4192621;28;20280;-61
2024/01/03 04:06:48;;;;;;;9.83;5.37;;;3.80;99.90;;;;;;4174785;28;20290;-60
2024/01/03 04:08:51;;;;;;;9.93;4.70;;;3.80;99.90;;;;;;4193359;28;20299;-62
2024/01/03 04:10:53;;;;;;;6.87;4.57;;;3.80;99.90;;;;;;4192972;28;20749;-60
2024/01/03 04:12:55;;;;;;;8.17;4.43;;;3.80;99.90;;;;;;4193675;28;20331;-60
2024/01/03 04:14:56;;;;;;;9.97;4.00;;;3.80;99.90;;;;;;4193787;28;20323;-60
2024/01/03 04:16:57;;;;;;;8.67;4.97;;;3.80;99.90;;;;;;4193171;28;20331;-61
2024/01/03 04:18:58;;;;;;;5.77;3.77;;;3.70;99.90;;;;;;4193329;28;20281;-61
2024/01/03 04:21:01;;;;;;;7.33;4.33;;;3.70;99.90;;;;;;4193957;28;20258;-60
2024/01/03 04:23:02;;;;;;;9.30;5.13;;;3.70;99.90;;;;;;4193010;28;20294;-60
2024/01/03 04:25:04;;;;;;;17.50;5.97;;;3.70;99.90;;;;;;4193728;28;20273;-60
2024/01/03 04:27:05;;;;;;;18.40;8.10;;;3.70;99.90;;;;;;4192719;28;20289;-60
2024/01/03 04:29:07;;;;;;;17.43;7.20;;;3.70;99.90;;;;;;4193586;28;20277;-61
2024/01/03 04:31:09;;;;;;;15.93;6.87;;;3.60;99.90;;;;;;4193669;28;20269;-60
2024/01/03 04:33:10;;;;;;;15.67;6.60;;;3.60;99.90;;;;;;4193621;28;20323;-61
2024/01/03 04:35:12;;;;;;;13.63;6.03;;;3.60;99.90;;;;;;4192898;28;20266;-60
2024/01/03 04:37:13;;;;;;;14.43;6.33;;;3.60;99.90;;;;;;4192246;28;20327;-60
2024/01/03 04:39:14;;;;;;;16.23;6.60;;;3.60;99.90;;;;;;4193585;28;20273;-58
2024/01/03 04:41:16;;;;;;;10.60;4.97;;;3.60;99.90;;;;;;4192834;28;20672;-61
2024/01/03 04:43:17;;;;;;;13.10;6.50;;;3.60;99.90;;;;;;4192725;28;20414;-60
2024/01/03 04:45:18;;;;;;;13.93;6.27;;;3.60;99.90;;;;;;4193167;28;20673;-61
2024/01/03 04:47:19;;;;;;;12.57;6.00;;;3.60;99.90;;;;;;4174525;28;20379;-61
2024/01/03 04:49:21;;;;;;;9.20;5.03;;;3.60;99.90;;;;;;4192656;28;20269;-59
2024/01/03 04:51:22;;;;;;;10.47;5.23;;;3.60;99.90;;;;;;4193236;28;20257;-60
2024/01/03 04:53:23;;;;;;;10.30;4.93;;;3.50;99.90;;;;;;4192632;28;20307;-60
2024/01/03 04:55:25;;;;;;;8.87;4.57;;;3.50;99.90;;;;;;4192449;28;20266;-60
2024/01/03 04:57:27;;;;;;;10.40;4.87;;;3.60;99.90;;;;;;4192450;28;20266;-62
2024/01/03 04:59:28;;;;;;;9.20;5.00;;;3.60;99.90;;;;;;4193133;28;20261;-61
2024/01/03 05:01:29;;;;;;;10.27;5.53;;;3.50;99.90;;;;;;4192335;28;20648;-61
2024/01/03 05:03:30;;;;;;;9.37;5.07;;;3.50;99.90;;;;;;4190662;28;20315;-60
2024/01/03 05:05:32;;;;;;;10.20;5.13;;;3.40;99.90;;;;;;4190572;28;20319;-58
2024/01/03 05:07:34;;;;;;;10.43;4.60;;;3.50;99.90;;;;;;4193042;28;20788;-61
2024/01/03 05:09:35;;;;;;;8.77;4.70;;;3.40;99.90;;;;;;4192362;28;20270;-62
2024/01/03 05:11:36;;;;;;;9.63;5.57;;;3.40;99.90;;;;;;4192362;28;20803;-61
2024/01/03 05:13:37;;;;;;;9.77;5.67;;;3.40;99.90;;;;;;4192386;28;20307;-61
2024/01/03 05:15:39;;;;;;;11.03;5.30;;;3.30;99.90;;;;;;4175671;28;20254;-61
2024/01/03 05:17:41;;;;;;;6.57;4.37;;;3.30;99.90;;;;;;4193118;28;20276;-62
2024/01/03 05:19:43;;;;;;;6.77;3.87;;;3.30;99.90;;;;;;4192279;28;20281;-61
2024/01/03 05:21:44;;;;;;;6.57;4.50;;;3.30;99.90;;;;;;4192224;28;20326;-61
2024/01/03 05:23:45;;;;;;;6.23;3.93;;;3.40;99.90;;;;;;4192978;28;20269;-61
2024/01/03 05:25:47;;;;;;;8.47;3.93;;;3.50;99.90;;;;;;4192949;28;20319;-61
2024/01/03 05:27:48;;;;;;;6.80;4.13;;;3.50;99.90;;;;;;4174600;28;20351;-61
2024/01/03 05:29:49;;;;;;;16.10;5.30;;;3.50;99.90;;;;;;4192169;28;20838;-60
2024/01/03 05:31:50;;;;;;;12.23;5.20;;;3.60;99.90;;;;;;4192565;28;20281;-60
2024/01/03 05:33:51;;;;;;;7.80;4.20;;;3.60;99.90;;;;;;4192233;28;20855;-62
2024/01/03 05:35:53;;;;;;;8.33;4.60;;;3.60;99.90;;;;;;4192884;28;20261;-61
2024/01/03 05:37:54;;;;;;;10.50;4.37;;;3.60;99.90;;;;;;4192739;28;20299;-61
2024/01/03 05:39:55;;;;;;;8.33;4.37;;;3.60;99.90;;;;;;4192474;28;20261;-60
2024/01/03 05:41:56;;;;;;;10.03;4.63;;;3.60;99.90;;;;;;4192125;28;20281;-61
2024/01/03 05:43:57;;;;;;;10.37;4.67;;;3.70;99.90;;;;;;4192931;28;20799;-59
2024/01/03 05:45:58;;;;;;;7.50;4.47;;;3.70;99.90;;;;;;4192302;28;20688;-59
2024/01/03 05:48:00;;;;;;;11.57;5.13;;;3.70;99.90;;;;;;4191555;28;20810;-63
2024/01/03 05:50:01;;;;;;;13.43;5.47;;;3.60;99.90;;;;;;4190550;28;20285;-59
2024/01/03 05:52:02;;;;;;;7.37;4.57;;;3.60;99.90;;;;;;4191184;28;20765;-60
2024/01/03 05:54:04;;;;;;;9.23;4.47;;;3.60;99.90;;;;;;4192698;28;20246;-61
2024/01/03 05:56:07;;;;;;;9.73;5.63;;;3.60;99.90;;;;;;4191682;28;20974;-60
2024/01/03 05:58:09;;;;;;;10.07;6.00;;;3.50;99.90;;;;;;4191948;28;20753;-61
2024/01/03 06:00:11;;;;;;;7.97;5.07;;;3.50;99.90;;;;;;4192781;28;20265;-61
2024/01/03 06:02:12;;;;;;;10.13;4.47;;;3.50;99.90;;;;;;4192735;28;20253;-60
2024/01/03 06:04:13;;;;;;;10.80;5.80;;;3.50;99.90;;;;;;4191629;28;20345;-60
2024/01/03 06:06:16;;;;;;;10.10;5.10;;;3.60;99.90;;;;;;4191981;28;20346;-61
2024/01/03 06:08:17;;;;;;;8.10;4.87;;;3.50;99.90;;;;;;4174776;28;20797;-61
2024/01/03 06:10:18;;;;;;;7.10;4.47;;;3.60;99.90;;;;;;4195092;28;20781;-61
2024/01/03 06:12:19;;;;;;;8.23;4.53;;;3.50;99.90;;;;;;4194907;28;20278;-61
2024/01/03 06:14:20;;;;;;;13.90;5.83;;;3.50;99.90;;;;;;4195030;28;20265;-60
2024/01/03 06:16:22;;;;;;;6.83;4.73;;;3.50;99.90;;;;;;4195288;28;20281;-61
2024/01/03 06:18:23;;;;;;;9.00;5.43;;;3.50;99.90;;;;;;4195805;28;20664;-60
2024/01/03 06:20:24;;;;;;;9.60;5.33;;;3.60;99.90;;;;;;4195819;28;20257;-60
2024/01/03 06:22:25;;;;;;;9.00;5.13;;;3.60;99.90;;;;;;4194685;28;20819;-60
2024/01/03 06:24:26;;;;;;;12.00;5.50;;;3.60;99.90;;;;;;4194545;28;20350;-61
2024/01/03 06:26:30;;;;;;;14.87;6.20;;;3.60;99.90;;;;;;4195543;28;20358;-62
2024/01/03 06:28:31;;;;;;;10.77;5.63;;;3.60;99.90;;;;;;4195654;28;20591;-61
2024/01/03 06:30:34;;;;;;;11.27;5.00;;;3.60;99.90;;;;;;4195589;28;20315;-61
2024/01/03 06:32:35;;;;;;;14.90;5.63;;;3.70;99.90;;;;;;4194594;28;20323;-61
2024/01/03 06:34:36;;;;;;;9.50;5.53;;;3.70;99.90;;;;;;4194229;28;20265;-60
2024/01/03 06:36:37;;;;;;;10.67;5.77;;;3.70;99.90;;;;;;4194364;28;20330;-62
2024/01/03 06:38:38;;;;;;;12.03;5.97;;;3.70;99.90;;;;;;4195243;28;20270;-61
2024/01/03 06:40:40;;;;;;;12.63;5.53;;;3.70;99.90;;;;;;4195251;28;20274;-61
2024/01/03 06:42:41;;;;;;;10.47;6.77;;;3.70;99.90;;;;;;4195175;28;20322;-61
2024/01/03 06:44:42;;;;;;;14.23;6.87;;;3.70;99.90;;;;;;4195630;28;20273;-61
2024/01/03 06:46:43;;;;;;;18.57;8.33;;;3.80;99.90;;;;;;4195390;28;20292;-61
2024/01/03 06:48:45;;;;;;;12.60;7.47;;;3.80;99.90;;;;;;4194145;28;20331;-61
2024/01/03 06:50:46;;;;;;;12.33;6.80;;;3.80;99.90;;;;;;4194562;28;20299;-60
2024/01/03 06:52:47;;;;;;;9.90;5.87;;;3.90;99.90;;;;;;4195089;28;20311;-57
2024/01/03 06:54:49;;;;;;;15.60;8.07;;;3.90;99.90;;;;;;4176573;28;20670;-60
2024/01/03 06:56:51;;;;;;;12.03;6.83;;;3.90;99.90;;;;;;4194299;28;20281;-63
2024/01/03 06:58:56;;;;;;;16.83;7.90;;;3.90;99.90;;;;;;4194970;28;20322;-61
2024/01/03 07:00:57;;;;;;;15.53;8.50;;;3.90;99.90;;;;;;4194845;28;20315;-62
2024/01/03 07:02:58;;;;;;;16.57;9.47;;;3.90;99.90;;;;;;4194628;28;20650;-61
2024/01/03 07:04:59;;;;;;;14.93;8.10;;;3.90;99.90;;;;;;4194211;28;20265;-62
2024/01/03 07:07:01;;;;;;;14.57;8.53;;;3.90;99.90;;;;;;4193581;28;20126;-61
2024/01/03 07:09:02;;;;;;;13.80;8.47;;;3.80;99.90;;;;;;4194840;28;20303;-61
2024/01/03 07:11:03;;;;;;;17.33;8.27;;;3.80;99.90;;;;;;4194931;28;20273;-61
2024/01/03 07:13:05;;;;;;;15.20;7.93;;;3.80;99.90;;;;;;4194787;28;20319;-60
2024/01/03 07:15:06;;;;;;;15.40;8.00;;;3.70;99.90;;;;;;4194483;28;20266;-61
2024/01/03 07:17:08;;;;;;;13.10;7.53;;;3.70;99.90;;;;;;4194037;28;20311;-61
2024/01/03 07:19:09;;;;;;;13.60;7.70;;;3.70;99.90;;;;;;4193401;28;20338;-61
2024/01/03 07:21:10;;;;;;;15.20;8.03;;;3.70;99.90;;;;;;4193949;28;20648;-61
2024/01/03 07:23:12;;;;;;;10.83;6.53;;;3.60;99.90;;;;;;4193947;28;20331;-62
2024/01/03 07:25:13;;;;;;;12.53;7.27;;;3.60;99.90;;;;;;4176965;28;21009;-60
2024/01/03 07:27:15;;;;;;;10.90;6.57;;;3.60;99.90;;;;;;4194380;28;20277;-61
2024/01/03 07:29:16;;;;;;;15.70;7.13;;;3.60;99.90;;;;;;4194329;28;20342;-60
2024/01/03 07:31:17;;;;;;;11.43;7.40;;;3.60;99.90;;;;;;4194524;28;20346;-61
2024/01/03 07:33:18;;;;;;;12.13;6.50;;;3.50;99.90;;;;;;4194364;28;20257;-61
2024/01/03 07:35:19;;;;;;;12.63;6.93;;;3.60;99.90;;;;;;4193438;28;20274;-60
2024/01/03 07:37:21;;;;;;;12.17;6.90;;;3.60;99.90;;;;;;4193564;28;20323;-61
2024/01/03 07:39:22;;;;;;;10.23;6.50;;;3.60;99.90;;;;;;4176203;28;20290;-62
2024/01/03 07:41:23;;;;;;;12.57;6.57;;;3.50;99.90;;;;;;4194112;28;20338;-61
2024/01/03 07:43:26;;;;;;;14.87;7.40;;;3.50;99.90;;;;;;4194366;28;20277;-61
2024/01/03 07:45:28;;;;;;;16.30;8.53;;;3.50;99.90;;;;;;4194749;28;20335;-62
2024/01/03 07:47:29;;;;;;;14.73;9.03;;;3.50;99.90;;;;;;4193516;28;20351;-61
2024/01/03 07:49:30;;;;;;;15.77;8.47;;;3.50;99.90;;;;;;4194261;28;20314;-60
2024/01/03 07:51:34;;;;;;;53.00;25.17;;;3.50;99.90;;;;;;4194193;28;20323;-61
2024/01/03 07:53:37;;;;;;;23.07;10.43;;;3.50;99.90;;;;;;4194083;28;20335;-62
2024/01/03 07:55:38;;;;;;;16.43;9.60;;;3.50;99.90;;;;;;4193694;28;20545;-60
2024/01/03 07:57:39;;;;;;;20.10;9.07;;;3.50;99.90;;;;;;4194139;28;20287;-61
2024/01/03 07:59:42;;;;;;;15.93;9.10;;;3.40;99.90;;;;;;4193996;28;20327;-61
2024/01/03 08:01:43;;;;;;;16.13;7.70;;;3.40;99.90;;;;;;4193164;28;20335;-62
2024/01/03 08:03:45;;;;;;;14.33;7.33;;;3.40;99.90;;;;;;4193719;28;20285;-62
2024/01/03 08:05:46;;;;;;;12.77;7.50;;;3.40;99.90;;;;;;4193791;28;20253;-60
2024/01/03 08:07:47;;;;;;;15.77;8.53;;;3.40;99.90;;;;;;4193017;28;20289;-60
2024/01/03 08:09:50;;;;;;;17.13;8.43;;;3.40;99.90;;;;;;4192628;28;21149;-61
2024/01/03 08:11:51;;;;;;;15.40;9.23;;;3.40;99.90;;;;;;4193841;28;20661;-61
2024/01/03 08:13:53;;;;;;;18.40;9.07;;;3.40;99.90;;;;;;4191847;28;20765;-60
2024/01/03 08:15:54;;;;;;;15.50;8.83;;;3.40;99.90;;;;;;4193081;28;20370;-60
2024/01/03 08:17:55;;;;;;;14.03;7.97;;;3.40;99.90;;;;;;4192485;28;20346;-61
2024/01/03 08:19:56;;;;;;;16.77;8.70;;;3.40;99.90;;;;;;4192819;28;20331;-62
2024/01/03 08:21:59;;;;;;;13.73;7.70;;;3.40;99.90;;;;;;4192935;28;20266;-62
2024/01/03 08:24:00;;;;;;;13.87;7.83;;;3.40;99.90;;;;;;4192291;28;20273;-62
2024/01/03 08:26:10;;;;;;;12.00;7.70;;;3.40;99.90;;;;;;4191814;28;20273;-62
2024/01/03 08:28:11;;;;;;;13.73;7.07;;;3.40;99.90;;;;;;4193096;28;20347;-62
2024/01/03 08:30:12;;;;;;;17.27;7.17;;;3.40;99.90;;;;;;4192224;28;20090;-62
2024/01/03 08:32:14;;;;;;;16.17;8.57;;;3.40;99.90;;;;;;4192658;28;20258;-62
2024/01/03 08:34:15;;;;;;;12.57;8.10;;;3.40;99.90;;;;;;4193281;28;20266;-62
2024/01/03 08:36:16;;;;;;;16.93;8.13;;;3.40;99.90;;;;;;4193305;28;20262;-61
2024/01/03 08:38:17;;;;;;;14.93;9.03;;;3.40;99.90;;;;;;4193056;28;20265;-67
2024/01/03 08:40:19;;;;;;;16.07;8.30;;;3.40;99.90;;;;;;4193300;28;20265;-61
2024/01/03 08:42:22;;;;;;;18.77;10.80;;;3.40;99.90;;;;;;4192980;28;20726;-61
2024/01/03 08:44:24;;;;;;;17.27;9.13;;;3.40;99.90;;;;;;4181493;28;20274;-61
2024/01/03 08:46:28;;;;;;;15.00;8.47;;;3.40;99.90;;;;;;4188291;28;20396;-61
2024/01/03 08:48:30;;;;;;;13.50;7.57;;;3.40;99.90;;;;;;4192977;28;20342;-61
2024/01/03 08:50:31;;;;;;;12.33;7.27;;;3.50;99.90;;;;;;4191999;28;20343;-60
2024/01/03 08:52:32;;;;;;;11.20;7.70;;;3.40;99.90;;;;;;4192759;28;20326;-60
2024/01/03 08:54:33;;;;;;;14.47;7.10;;;3.50;99.90;;;;;;4192281;28;20282;-62
2024/01/03 08:56:34;;;;;;;13.80;7.37;;;3.40;99.90;;;;;;4191935;28;20696;-59
2024/01/03 08:58:36;;;;;;;11.27;7.33;;;3.50;99.90;;;;;;4191598;28;20418;-63
2024/01/03 09:00:37;;;;;;;13.63;7.70;;;3.50;99.90;;;;;;4193362;28;20383;-60
2024/01/03 09:02:38;;;;;;;14.00;8.13;;;3.50;99.90;;;;;;4192112;28;20326;-59
2024/01/03 09:04:41;;;;;;;17.63;9.63;;;3.50;99.90;;;;;;4192133;28;20319;-62
2024/01/03 09:06:42;;;;;;;17.30;8.83;;;3.60;99.90;;;;;;4192826;28;20316;-61
2024/01/03 09:08:45;;;;;;;15.67;8.77;;;3.70;99.90;;;;;;4192012;28;20766;-61
2024/01/03 09:10:48;;;;;;;17.93;7.87;;;3.70;99.90;;;;;;4192180;28;20281;-62
2024/01/03 09:12:49;;;;;;;16.47;9.40;;;3.80;99.90;;;;;;4191974;28;20753;-63
2024/01/03 09:14:51;;;;;;;14.67;8.67;;;3.80;99.90;;;;;;4191873;28;20326;-61
2024/01/03 09:16:52;;;;;;;24.37;13.50;;;3.90;99.90;;;;;;4192252;28;20377;-61
2024/01/03 09:18:53;;;;;;;17.17;10.77;;;3.90;99.90;;;;;;4192800;28;20265;-62
2024/01/03 09:20:55;;;;;;;17.27;8.97;;;4.00;99.90;;;;;;4192017;28;20303;-61
2024/01/03 09:22:56;;;;;;;16.40;7.80;;;4.00;99.90;;;;;;4192063;28;20281;-61
2024/01/03 09:24:57;;;;;;;14.50;7.90;;;4.10;99.90;;;;;;4192837;28;20262;-61
2024/01/03 09:27:00;;;;;;;15.33;6.83;;;4.10;99.90;;;;;;4192692;28;20293;-61
2024/01/03 09:29:01;;;;;;;14.60;7.33;;;4.00;99.90;;;;;;4185923;28;20266;-61
2024/01/03 09:31:04;;;;;;;16.03;7.33;;;4.00;99.90;;;;;;4176112;28;20351;-61
2024/01/03 09:33:05;;;;;;;14.00;7.40;;;4.10;99.90;;;;;;4176396;28;20750;-61
2024/01/03 09:35:06;;;;;;;14.93;7.77;;;4.10;99.90;;;;;;4175138;28;20311;-61
2024/01/03 09:37:09;;;;;;;13.50;7.47;;;4.20;99.90;;;;;;4175531;28;20750;-61
2024/01/03 09:39:10;;;;;;;13.10;6.70;;;4.20;99.90;;;;;;4176382;28;20733;-61
2024/01/03 09:41:12;;;;;;;11.70;6.13;;;4.20;99.90;;;;;;4176446;28;20598;-62
2024/01/03 09:43:14;;;;;;;11.80;6.90;;;4.10;99.90;;;;;;4175524;28;20747;-62
2024/01/03 09:45:15;;;;;;;14.40;7.23;;;4.10;99.90;;;;;;4180008;28;20336;-62
2024/01/03 09:47:20;;;;;;;11.43;7.07;;;4.10;99.90;;;;;;4179509;28;20290;-61
2024/01/03 09:49:21;;;;;;;13.23;6.73;;;4.20;99.90;;;;;;4179688;28;20270;-62
2024/01/03 09:51:22;;;;;;;17.23;8.30;;;4.20;99.90;;;;;;4178920;28;20351;-61
2024/01/03 09:53:25;;;;;;;13.30;6.77;;;4.20;99.90;;;;;;4179464;28;20327;-62
2024/01/03 09:55:29;;;;;;;19.90;9.87;;;4.20;99.90;;;;;;4179115;28;20254;-63
2024/01/03 09:57:31;;;;;;;18.07;7.90;;;4.30;99.90;;;;;;4178593;28;20746;-61
2024/01/03 09:59:33;;;;;;;12.43;7.17;;;4.40;99.90;;;;;;4177595;28;20831;-59
2024/01/03 10:01:35;;;;;;;14.17;7.27;;;4.40;99.90;;;;;;4178305;28;20619;-62
2024/01/03 10:03:36;;;;;;;11.40;7.03;;;4.50;99.90;;;;;;4178202;28;20367;-61
2024/01/03 10:05:37;;;;;;;12.87;6.43;;;4.60;99.90;;;;;;4178641;28;20347;-63
2024/01/03 10:07:40;;;;;;;13.40;7.10;;;4.70;99.90;;;;;;4178841;28;20063;-62
2024/01/03 10:09:45;;;;;;;12.33;7.47;;;4.80;99.90;;;;;;4190006;28;20074;-62
2024/01/03 10:11:51;;;;;;;16.07;7.90;;;4.80;99.90;;;;;;4195587;28;20063;-62
2024/01/03 10:13:54;;;;;;;16.50;8.43;;;4.80;99.90;;;;;;4194438;28;20261;-62
2024/01/03 10:16:02;;;;;;;13.43;8.13;;;4.80;99.90;;;;;;4195249;28;20044;-62
2024/01/03 10:18:08;;;;;;;15.77;8.73;;;4.90;99.90;;;;;;4195747;28;20036;-62
2024/01/03 10:20:29;;;;;;;14.63;8.10;;;5.00;99.90;;;;;;4192874;28;20443;-60
2024/01/03 10:22:30;;;;;;;19.48;8.60;;;5.10;99.90;;;;;;4179227;28;20055;-61
2024/01/03 10:24:31;;;;;;;19.07;9.23;;;5.20;99.90;;;;;;4177465;28;20082;-62
2024/01/03 10:26:33;;;;;;;17.63;8.47;;;5.30;99.90;;;;;;4177923;28;20567;-63
2024/01/03 10:28:34;;;;;;;15.73;8.93;;;5.50;99.90;;;;;;4179602;28;20106;-60
2024/01/03 10:30:35;;;;;;;18.77;10.40;;;5.60;99.90;;;;;;4192709;28;20370;-60
2024/01/03 10:32:37;;;;;;;16.07;10.10;;;5.60;99.90;;;;;;4194687;28;20024;-62
2024/01/03 10:34:38;;;;;;;20.00;11.17;;;5.70;99.90;;;;;;4194871;28;20036;-62
2024/01/03 10:36:39;;;;;;;19.30;10.67;;;5.80;99.90;;;;;;4177232;28;20095;-61